Time;durP1;ratioP1;P1;durP2;ratioP2;P2;SDS_P1;SDS_P2;PMS_P1;PMS_P2;Temp;Humidity;BMP_temperature;BMP_pressure;BME280_temperature;BME280_humidity;BME280_pressure;Samples;Min_cycle;Max_cycle;Signal;HPM_P1;HPM_P2
2024/01/19 00:02:17;;;;;;;36.35;29.58;;;23.20;57.80;;;;;;5046624;28;20468;-51
2024/01/19 00:04:44;;;;;;;9.88;3.75;;;23.10;59.00;;;;;;5037097;28;20163;-49
2024/01/19 00:07:10;;;;;;;9.73;3.15;;;23.00;59.10;;;;;;5037019;28;20074;-50
2024/01/19 00:09:36;;;;;;;11.07;6.05;;;22.80;59.40;;;;;;5046942;28;20119;-45
2024/01/19 00:12:03;;;;;;;11.85;4.00;;;22.60;59.30;;;;;;5044277;28;20084;-58
2024/01/19 00:14:30;;;;;;;6.40;3.10;;;22.40;59.90;;;;;;5046939;28;20551;-53
2024/01/19 00:16:56;;;;;;;7.22;3.30;;;22.40;60.50;;;;;;5042944;28;20175;-55
2024/01/19 00:19:22;;;;;;;13.13;3.50;;;22.30;61.30;;;;;;5044414;28;20161;-48
2024/01/19 00:21:49;;;;;;;9.40;3.03;;;22.30;61.50;;;;;;5037211;28;20078;-47
2024/01/19 00:24:16;;;;;;;17.02;3.35;;;22.20;61.20;;;;;;5045553;28;20082;-49
2024/01/19 00:26:47;;;;;;;12.18;3.80;;;22.10;61.80;;;;;;5038140;28;20082;-56
2024/01/19 00:29:14;;;;;;;23.67;4.20;;;22.00;62.70;;;;;;5043876;28;20074;-45
2024/01/19 00:31:45;;;;;;;13.25;3.97;;;21.90;63.10;;;;;;5047073;28;20105;-53
2024/01/19 00:34:13;;;;;;;18.45;3.92;;;22.00;62.80;;;;;;5043511;28;20352;-58
2024/01/19 00:36:40;;;;;;;33.10;4.70;;;22.00;62.40;;;;;;5039091;28;20105;-47
2024/01/19 00:39:07;;;;;;;15.77;4.80;;;21.80;63.20;;;;;;5044145;28;20168;-47
2024/01/19 00:41:33;;;;;;;17.63;5.28;;;21.60;64.20;;;;;;5039791;28;20082;-49
2024/01/19 00:44:00;;;;;;;25.55;5.63;;;21.50;64.10;;;;;;5044384;28;20078;-47
2024/01/19 00:46:29;;;;;;;21.42;6.07;;;21.30;64.80;;;;;;5037245;28;20085;-44
2024/01/19 00:48:56;;;;;;;13.48;5.00;;;21.20;65.40;;;;;;5063924;28;21313;-44
2024/01/19 00:51:23;;;;;;;23.08;5.95;;;21.00;65.80;;;;;;5050583;28;20073;-46
2024/01/19 00:53:49;;;;;;;24.58;5.43;;;20.80;66.30;;;;;;5056808;28;20077;-45
2024/01/19 00:56:17;;;;;;;26.42;5.13;;;20.70;66.80;;;;;;5046111;28;20120;-56
2024/01/19 00:58:45;;;;;;;26.70;5.82;;;20.60;67.40;;;;;;5053825;28;20069;-45
2024/01/19 01:01:13;;;;;;;25.98;6.45;;;20.40;67.90;;;;;;5046431;28;20518;-48
2024/01/19 01:03:41;;;;;;;24.50;6.72;;;20.30;68.40;;;;;;5052354;28;21297;-46
2024/01/19 01:06:08;;;;;;;35.90;7.43;;;20.20;68.90;;;;;;5036713;28;20077;-46
2024/01/19 01:08:35;;;;;;;26.90;7.18;;;20.00;69.40;;;;;;5056442;28;20069;-56
2024/01/19 01:11:03;;;;;;;35.88;8.15;;;19.90;70.50;;;;;;5045387;28;20438;-46
2024/01/19 01:13:30;;;;;;;33.47;9.32;;;19.80;71.60;;;;;;5049871;28;20130;-46
2024/01/19 01:15:57;;;;;;;41.35;9.63;;;19.70;72.20;;;;;;5046192;28;20106;-50
2024/01/19 01:18:23;;;;;;;37.88;9.45;;;19.70;73.10;;;;;;5039337;28;20077;-47
2024/01/19 01:20:53;;;;;;;28.77;9.80;;;19.50;73.50;;;;;;5043870;28;20168;-44
2024/01/19 01:23:20;;;;;;;43.03;9.95;;;19.50;74.10;;;;;;5064396;28;20073;-47
2024/01/19 01:25:46;;;;;;;37.47;10.40;;;19.40;74.60;;;;;;5036436;28;20093;-58
2024/01/19 01:28:13;;;;;;;25.58;9.85;;;19.30;75.20;;;;;;5046904;28;20073;-47
2024/01/19 01:30:40;;;;;;;33.33;14.68;;;19.10;75.60;;;;;;5030817;28;20073;-57
2024/01/19 01:33:07;;;;;;;32.25;12.32;;;19.00;76.10;;;;;;5062617;28;20119;-47
2024/01/19 01:35:35;;;;;;;38.95;11.45;;;18.90;76.50;;;;;;5047693;28;20126;-48
2024/01/19 01:38:03;;;;;;;41.45;11.82;;;18.80;77.10;;;;;;5034525;28;20089;-50
2024/01/19 01:40:30;;;;;;;28.50;10.90;;;18.80;77.50;;;;;;5041434;28;20081;-45
2024/01/19 01:43:06;;;;;;;45.60;11.73;;;18.70;77.80;;;;;;5042009;28;20130;-50
2024/01/19 01:45:33;;;;;;;43.58;11.95;;;18.70;78.50;;;;;;5043988;28;20126;-47
2024/01/19 01:48:00;;;;;;;52.40;11.77;;;18.70;78.70;;;;;;5044852;28;20112;-44
2024/01/19 01:50:28;;;;;;;44.20;12.98;;;18.60;79.20;;;;;;5044531;28;20078;-47
2024/01/19 01:52:55;;;;;;;45.75;13.30;;;18.50;79.20;;;;;;5048521;28;20472;-49
2024/01/19 01:55:22;;;;;;;47.47;12.18;;;18.40;79.90;;;;;;5039053;28;20081;-47
2024/01/19 01:57:49;;;;;;;39.63;12.27;;;18.30;80.30;;;;;;5037619;28;20154;-48
2024/01/19 02:00:18;;;;;;;54.55;12.60;;;18.20;81.00;;;;;;5025341;28;20077;-49
2024/01/19 02:02:46;;;;;;;61.78;14.07;;;18.00;81.70;;;;;;5038962;28;20092;-47
2024/01/19 02:05:13;;;;;;;76.90;14.60;;;18.00;82.30;;;;;;5040931;28;20123;-45
2024/01/19 02:07:39;;;;;;;66.25;14.88;;;17.90;83.00;;;;;;5049212;28;20148;-46
2024/01/19 02:10:06;;;;;;;54.08;13.60;;;17.80;83.70;;;;;;5061297;28;20069;-49
2024/01/19 02:12:33;;;;;;;64.20;16.27;;;17.80;84.30;;;;;;5059555;28;20091;-48
2024/01/19 02:14:59;;;;;;;69.43;19.45;;;17.70;85.00;;;;;;5051442;28;20588;-51
2024/01/19 02:17:26;;;;;;;54.55;17.52;;;17.60;85.80;;;;;;5037735;28;20093;-47
2024/01/19 02:19:53;;;;;;;59.97;14.82;;;17.50;86.50;;;;;;5048266;28;20116;-47
2024/01/19 02:22:20;;;;;;;63.83;15.38;;;17.50;86.90;;;;;;5035792;28;20466;-50
2024/01/19 02:24:47;;;;;;;69.60;15.00;;;17.50;87.00;;;;;;5058660;28;20069;-54
2024/01/19 02:27:14;;;;;;;44.15;14.48;;;17.50;87.40;;;;;;5046034;28;20077;-47
2024/01/19 02:29:49;;;;;;;68.38;14.02;;;17.50;88.10;;;;;;5042509;28;20168;-48
2024/01/19 02:32:16;;;;;;;63.03;14.07;;;17.40;88.40;;;;;;5043524;28;20569;-48
2024/01/19 02:34:45;;;;;;;70.55;13.82;;;17.30;88.70;;;;;;5043924;28;20101;-46
2024/01/19 02:37:13;;;;;;;62.97;14.07;;;17.20;89.40;;;;;;5038226;28;20101;-56
2024/01/19 02:39:40;;;;;;;57.13;13.25;;;17.20;90.00;;;;;;5033295;28;20077;-47
2024/01/19 02:42:08;;;;;;;63.05;15.38;;;17.20;90.20;;;;;;5045086;28;20073;-50
2024/01/19 02:44:35;;;;;;;51.55;14.60;;;17.20;90.20;;;;;;5047163;28;20080;-48
2024/01/19 02:47:02;;;;;;;45.80;14.30;;;17.10;90.30;;;;;;5045438;28;20077;-46
2024/01/19 02:49:29;;;;;;;63.90;16.58;;;17.10;90.80;;;;;;5056034;28;20145;-47
2024/01/19 02:51:56;;;;;;;80.60;17.98;;;17.10;90.80;;;;;;5046547;28;20081;-49
2024/01/19 02:54:22;;;;;;;85.25;18.35;;;17.10;90.90;;;;;;5041081;28;20112;-45
2024/01/19 02:56:48;;;;;;;69.45;17.85;;;17.10;90.90;;;;;;5044844;28;20691;-46
2024/01/19 02:59:15;;;;;;;73.70;18.52;;;17.10;90.90;;;;;;5057799;28;20088;-45
2024/01/19 03:01:42;;;;;;;62.17;17.02;;;16.90;91.00;;;;;;5050214;28;20081;-47
2024/01/19 03:04:08;;;;;;;74.60;17.23;;;16.80;91.30;;;;;;5047365;28;20069;-47
2024/01/19 03:06:35;;;;;;;72.55;18.05;;;16.80;91.70;;;;;;5042608;28;20069;-46
2024/01/19 03:09:03;;;;;;;73.18;18.27;;;16.80;91.90;;;;;;5049184;28;20081;-45
2024/01/19 03:11:30;;;;;;;69.95;18.50;;;16.70;92.10;;;;;;5043938;28;20077;-51
2024/01/19 03:13:56;;;;;;;68.53;17.05;;;16.70;92.30;;;;;;5045880;28;20152;-47
2024/01/19 03:16:24;;;;;;;82.15;18.38;;;16.60;92.60;;;;;;5041556;28;20192;-44
2024/01/19 03:18:55;;;;;;;75.93;18.52;;;16.50;92.70;;;;;;5043931;28;20595;-48
2024/01/19 03:21:26;;;;;;;84.88;18.85;;;16.50;93.00;;;;;;5067107;28;20526;-47
2024/01/19 03:23:53;;;;;;;76.78;19.17;;;16.50;93.30;;;;;;5043844;28;20080;-52
2024/01/19 03:26:20;;;;;;;77.30;19.05;;;16.50;93.50;;;;;;5034480;28;20172;-45
2024/01/19 03:28:47;;;;;;;85.53;18.35;;;16.60;93.60;;;;;;5048690;28;20076;-51
2024/01/19 03:31:14;;;;;;;74.57;19.15;;;16.50;93.80;;;;;;5047397;28;20101;-48
2024/01/19 03:33:41;;;;;;;76.80;20.88;;;16.40;93.70;;;;;;5049457;28;20167;-50
2024/01/19 03:36:07;;;;;;;56.65;20.23;;;16.40;93.70;;;;;;5047578;28;20101;-52
2024/01/19 03:38:34;;;;;;;84.32;22.90;;;16.40;94.00;;;;;;5039550;28;20073;-51
2024/01/19 03:41:01;;;;;;;86.18;22.83;;;16.40;94.10;;;;;;5047701;28;20073;-51
2024/01/19 03:43:27;;;;;;;71.78;21.15;;;16.20;94.00;;;;;;5065210;28;20133;-49
2024/01/19 03:45:54;;;;;;;63.13;21.42;;;16.30;94.20;;;;;;5057969;28;20466;-50
2024/01/19 03:48:20;;;;;;;95.53;21.80;;;16.30;94.20;;;;;;5043721;28;20117;-60
2024/01/19 03:50:48;;;;;;;61.92;20.80;;;16.20;94.60;;;;;;5043033;28;20077;-46
2024/01/19 03:53:14;;;;;;;78.13;21.80;;;16.10;94.50;;;;;;5039440;28;20444;-50
2024/01/19 03:55:41;;;;;;;69.18;20.70;;;16.10;94.70;;;;;;5045063;28;20069;-48
2024/01/19 03:58:09;;;;;;;74.60;22.02;;;16.10;94.90;;;;;;5060722;28;20123;-46
2024/01/19 04:00:36;;;;;;;73.90;21.88;;;16.00;95.00;;;;;;5041550;28;20541;-48
2024/01/19 04:03:02;;;;;;;70.20;22.05;;;16.00;94.90;;;;;;5040028;28;20092;-46
2024/01/19 04:05:29;;;;;;;67.93;22.67;;;15.90;95.00;;;;;;5043084;28;20522;-45
2024/01/19 04:07:56;;;;;;;79.72;22.35;;;15.90;95.20;;;;;;5055800;28;20109;-53
2024/01/19 04:10:22;;;;;;;59.42;21.58;;;15.80;95.90;;;;;;5055631;28;20106;-48
2024/01/19 04:12:51;;;;;;;62.85;22.27;;;15.70;95.90;;;;;;5058173;28;20613;-49
2024/01/19 04:15:18;;;;;;;60.50;22.23;;;15.70;95.90;;;;;;5054108;28;21027;-49
2024/01/19 04:17:44;;;;;;;73.18;23.83;;;15.70;96.20;;;;;;5038497;28;20151;-57
2024/01/19 04:20:11;;;;;;;72.65;23.50;;;15.70;96.40;;;;;;5042575;28;20081;-49
2024/01/19 04:22:38;;;;;;;80.72;24.08;;;15.60;96.50;;;;;;5054428;28;20134;-51
2024/01/19 04:25:05;;;;;;;73.72;24.42;;;15.60;96.70;;;;;;5035604;28;20092;-47
2024/01/19 04:27:31;;;;;;;76.88;25.50;;;15.50;97.00;;;;;;5043638;28;20111;-46
2024/01/19 04:29:58;;;;;;;62.47;23.05;;;15.40;97.50;;;;;;5048991;28;20085;-53
2024/01/19 04:32:25;;;;;;;58.20;23.33;;;15.40;97.60;;;;;;5058619;28;20151;-49
2024/01/19 04:34:51;;;;;;;71.57;24.13;;;15.40;97.60;;;;;;5063585;28;20073;-48
2024/01/19 04:37:18;;;;;;;65.90;23.92;;;15.40;97.80;;;;;;5046316;28;20101;-58
2024/01/19 04:39:46;;;;;;;78.82;24.15;;;15.40;98.40;;;;;;5030296;28;20116;-51
2024/01/19 04:42:13;;;;;;;70.32;24.05;;;15.40;98.70;;;;;;5041087;28;20088;-47
2024/01/19 04:44:39;;;;;;;62.67;24.13;;;15.30;98.70;;;;;;5045146;28;20103;-49
2024/01/19 04:47:06;;;;;;;60.08;22.48;;;15.30;98.50;;;;;;5044422;28;20077;-48
2024/01/19 04:49:33;;;;;;;80.88;24.17;;;15.30;98.80;;;;;;5055593;28;20109;-53
2024/01/19 04:51:59;;;;;;;83.47;23.88;;;15.20;99.20;;;;;;5040352;28;20081;-54
2024/01/19 04:54:26;;;;;;;86.22;24.00;;;15.10;99.80;;;;;;5044173;28;20131;-48
2024/01/19 04:56:52;;;;;;;72.93;24.75;;;15.10;99.70;;;;;;5043951;28;20627;-51
2024/01/19 04:59:19;;;;;;;79.38;23.92;;;15.10;99.60;;;;;;5058846;28;20105;-50
2024/01/19 05:01:46;;;;;;;72.93;24.65;;;15.10;99.80;;;;;;5047492;28;20084;-46
2024/01/19 05:04:12;;;;;;;68.30;23.15;;;15.10;99.90;;;;;;5041185;28;20080;-47
2024/01/19 05:06:41;;;;;;;67.47;22.48;;;15.00;99.90;;;;;;5042629;28;20070;-52
2024/01/19 05:09:08;;;;;;;64.43;22.45;;;15.00;99.90;;;;;;5056319;28;20173;-47
2024/01/19 05:11:34;;;;;;;68.25;24.38;;;15.00;99.90;;;;;;5044556;28;20164;-48
2024/01/19 05:14:03;;;;;;;85.80;24.70;;;14.90;99.90;;;;;;5060994;28;20065;-49
2024/01/19 05:16:29;;;;;;;86.35;37.30;;;14.80;99.90;;;;;;5039604;28;20101;-47
2024/01/19 05:18:56;;;;;;;96.15;40.55;;;14.80;99.90;;;;;;5047944;28;20105;-51
2024/01/19 05:21:22;;;;;;;73.43;27.35;;;14.80;99.90;;;;;;5039349;28;20511;-49
2024/01/19 05:23:49;;;;;;;71.32;25.17;;;14.70;99.90;;;;;;5046020;28;20164;-48
2024/01/19 05:26:15;;;;;;;68.35;25.27;;;14.80;99.90;;;;;;5038899;28;20073;-47
2024/01/19 05:28:42;;;;;;;72.30;23.75;;;14.80;99.90;;;;;;5050726;28;20073;-46
2024/01/19 05:31:09;;;;;;;69.40;24.10;;;14.80;99.90;;;;;;5047482;28;20077;-47
2024/01/19 05:33:35;;;;;;;66.63;23.98;;;14.70;99.90;;;;;;5047350;28;20106;-48
2024/01/19 05:36:02;;;;;;;70.28;23.98;;;14.70;99.90;;;;;;5042222;28;20108;-46
2024/01/19 05:38:29;;;;;;;66.40;23.10;;;14.70;99.90;;;;;;5035444;28;20161;-48
2024/01/19 05:40:58;;;;;;;76.03;22.67;;;14.80;99.90;;;;;;5025030;28;20091;-48
2024/01/19 05:43:25;;;;;;;60.65;24.13;;;15.50;99.90;;;;;;5044556;28;20070;-52
2024/01/19 05:45:51;;;;;;;49.40;20.50;;;15.70;99.90;;;;;;5056907;28;20086;-44
2024/01/19 05:48:18;;;;;;;54.10;22.30;;;15.90;99.90;;;;;;5045848;28;20112;-47
2024/01/19 05:50:44;;;;;;;63.28;22.10;;;15.80;99.90;;;;;;5060810;28;20096;-46
2024/01/19 05:53:11;;;;;;;61.10;22.48;;;15.60;99.90;;;;;;5036888;28;20147;-48
2024/01/19 05:55:37;;;;;;;57.92;21.92;;;16.10;99.90;;;;;;5043989;28;20069;-56
2024/01/19 05:58:04;;;;;;;69.03;21.50;;;16.00;99.30;;;;;;5038379;28;20195;-52
2024/01/19 06:00:31;;;;;;;50.00;20.75;;;15.90;99.50;;;;;;5047238;28;20164;-50
2024/01/19 06:02:58;;;;;;;58.67;20.75;;;15.90;99.30;;;;;;5045146;28;20077;-48
2024/01/19 06:05:25;;;;;;;58.83;20.15;;;15.80;99.40;;;;;;5034871;28;20069;-46
2024/01/19 06:07:51;;;;;;;52.75;20.80;;;15.70;99.60;;;;;;5044953;28;20156;-51
2024/01/19 06:10:18;;;;;;;62.00;20.75;;;15.60;99.80;;;;;;5040478;28;20073;-46
2024/01/19 06:12:45;;;;;;;58.97;21.42;;;15.70;99.60;;;;;;5016098;28;20120;-48
2024/01/19 06:15:11;;;;;;;56.65;19.80;;;15.60;99.80;;;;;;5048368;28;20127;-46
2024/01/19 06:17:38;;;;;;;53.25;20.48;;;15.60;99.80;;;;;;5038690;28;20097;-45
2024/01/19 06:20:05;;;;;;;53.60;20.40;;;15.60;99.90;;;;;;5036562;28;20506;-49
2024/01/19 06:22:31;;;;;;;51.47;20.75;;;15.50;99.90;;;;;;5058669;28;20135;-47
2024/01/19 06:24:58;;;;;;;58.67;21.95;;;15.50;99.90;;;;;;5059001;28;20070;-48
2024/01/19 06:27:25;;;;;;;58.17;21.77;;;15.40;99.90;;;;;;5058983;28;20523;-47
2024/01/19 06:29:52;;;;;;;64.65;21.70;;;15.40;99.90;;;;;;5034247;28;20543;-43
2024/01/19 06:32:19;;;;;;;51.75;20.08;;;15.40;99.90;;;;;;5040662;28;20080;-45
2024/01/19 06:34:45;;;;;;;40.70;19.17;;;15.50;99.90;;;;;;5045741;28;20088;-46
2024/01/19 06:37:12;;;;;;;41.85;19.17;;;15.30;99.90;;;;;;5047360;28;20123;-48
2024/01/19 06:39:38;;;;;;;38.40;18.02;;;15.30;99.90;;;;;;5032801;28;20096;-45
2024/01/19 06:42:05;;;;;;;47.60;20.35;;;15.20;99.90;;;;;;5047943;28;20103;-48
2024/01/19 06:44:31;;;;;;;47.78;21.27;;;15.10;99.90;;;;;;5061732;28;20078;-49
2024/01/19 06:46:58;;;;;;;54.38;21.17;;;15.00;99.90;;;;;;5043299;28;20073;-46
2024/01/19 06:49:24;;;;;;;54.80;22.45;;;14.90;99.90;;;;;;5047095;28;20105;-46
2024/01/19 06:51:51;;;;;;;49.67;21.83;;;14.90;99.90;;;;;;5062610;28;20122;-46
2024/01/19 06:54:17;;;;;;;53.55;21.25;;;14.90;99.90;;;;;;5046108;28;20073;-46
2024/01/19 06:56:44;;;;;;;54.40;21.10;;;14.80;99.90;;;;;;5061305;28;20119;-46
2024/01/19 06:59:12;;;;;;;55.55;23.27;;;14.80;99.90;;;;;;5055057;28;20071;-44
2024/01/19 07:01:39;;;;;;;51.10;22.38;;;14.80;99.90;;;;;;5048396;28;20069;-57
2024/01/19 07:04:05;;;;;;;51.33;23.13;;;14.70;99.90;;;;;;5039762;28;20081;-45
2024/01/19 07:06:33;;;;;;;55.70;24.17;;;14.70;99.90;;;;;;5037349;28;20081;-44
2024/01/19 07:09:01;;;;;;;67.90;25.75;;;14.70;99.90;;;;;;5040702;28;20078;-46
2024/01/19 07:11:28;;;;;;;76.53;41.42;;;14.70;99.90;;;;;;5051591;28;20073;-45
2024/01/19 07:13:54;;;;;;;60.85;26.65;;;14.70;99.90;;;;;;5036679;28;20267;-55
2024/01/19 07:16:22;;;;;;;66.97;27.25;;;14.70;99.90;;;;;;5044845;28;20108;-51
2024/01/19 07:18:48;;;;;;;66.63;28.70;;;14.60;99.90;;;;;;5047597;28;20465;-43
2024/01/19 07:21:16;;;;;;;89.97;30.63;;;14.60;99.90;;;;;;5037065;28;20126;-49
2024/01/19 07:23:42;;;;;;;91.70;41.72;;;14.60;99.90;;;;;;5037333;28;20490;-48
2024/01/19 07:26:09;;;;;;;77.00;32.45;;;14.60;99.90;;;;;;5042351;28;20081;-46
2024/01/19 07:28:36;;;;;;;71.35;32.65;;;14.60;99.90;;;;;;5035003;28;20077;-45
2024/01/19 07:31:03;;;;;;;82.70;31.70;;;14.50;99.90;;;;;;5048780;28;20171;-45
2024/01/19 07:33:30;;;;;;;68.80;31.13;;;14.50;99.90;;;;;;5046808;28;20175;-46
2024/01/19 07:35:56;;;;;;;71.47;32.13;;;14.60;99.90;;;;;;5056159;28;20080;-49
2024/01/19 07:38:23;;;;;;;86.72;34.15;;;14.50;99.90;;;;;;5059996;28;20146;-47
2024/01/19 07:40:49;;;;;;;92.28;33.80;;;14.50;99.90;;;;;;5044564;28;20188;-56
2024/01/19 07:43:16;;;;;;;75.55;31.55;;;14.50;99.90;;;;;;5039680;28;20164;-46
2024/01/19 07:45:43;;;;;;;82.07;32.75;;;14.40;99.90;;;;;;5043571;28;20535;-45
2024/01/19 07:48:10;;;;;;;74.22;32.45;;;14.40;99.90;;;;;;5044814;28;20116;-49
2024/01/19 07:50:36;;;;;;;75.00;31.13;;;14.50;99.90;;;;;;5063737;28;20160;-46
2024/01/19 07:53:03;;;;;;;86.97;34.78;;;14.40;99.90;;;;;;5042428;28;20088;-44
2024/01/19 07:55:30;;;;;;;97.05;39.83;;;14.20;99.90;;;;;;5042427;28;20093;-43
2024/01/19 07:57:56;;;;;;;107.93;41.53;;;14.30;99.90;;;;;;5044293;28;20100;-48
2024/01/19 08:00:23;;;;;;;98.85;40.80;;;14.40;99.90;;;;;;5044515;28;20078;-49
2024/01/19 08:02:49;;;;;;;109.93;42.28;;;14.30;99.90;;;;;;5060483;28;20084;-43
2024/01/19 08:05:16;;;;;;;124.03;44.45;;;14.20;99.90;;;;;;5056220;28;20070;-47
2024/01/19 08:07:43;;;;;;;137.38;48.35;;;14.20;99.90;;;;;;5030395;28;20081;-46
2024/01/19 08:10:10;;;;;;;135.00;46.05;;;14.20;99.90;;;;;;5038128;28;20188;-46
2024/01/19 08:12:36;;;;;;;135.57;48.22;;;14.20;99.90;;;;;;5048957;28;20554;-44
2024/01/19 08:15:03;;;;;;;140.57;50.45;;;14.20;99.90;;;;;;5039968;28;20078;-47
2024/01/19 08:17:32;;;;;;;157.77;51.08;;;14.20;99.90;;;;;;5044902;28;20128;-44
2024/01/19 08:19:59;;;;;;;145.63;53.55;;;14.20;99.90;;;;;;5046037;28;20115;-46
2024/01/19 08:22:25;;;;;;;145.98;53.13;;;14.20;99.90;;;;;;5048100;28;20077;-49
2024/01/19 08:24:54;;;;;;;138.38;52.20;;;14.20;99.90;;;;;;5050159;28;20158;-43
2024/01/19 08:27:20;;;;;;;141.05;55.38;;;14.10;99.90;;;;;;5046026;28;20088;-44
2024/01/19 08:29:47;;;;;;;152.65;55.20;;;14.10;99.90;;;;;;5040382;28;20077;-44
2024/01/19 08:32:14;;;;;;;142.85;53.45;;;14.10;99.90;;;;;;5049235;28;20073;-54
2024/01/19 08:34:43;;;;;;;131.73;52.80;;;14.10;99.90;;;;;;5045722;28;20123;-45
2024/01/19 08:37:10;;;;;;;141.27;54.47;;;14.10;99.90;;;;;;5044180;28;20105;-49
2024/01/19 08:39:37;;;;;;;133.15;56.13;;;14.00;99.90;;;;;;5033841;28;20574;-44
2024/01/19 08:42:06;;;;;;;150.38;55.30;;;14.00;99.90;;;;;;5042751;28;20101;-43
2024/01/19 08:44:33;;;;;;;167.65;57.60;;;14.00;99.90;;;;;;5051784;28;20145;-44
2024/01/19 08:46:59;;;;;;;153.30;58.58;;;13.90;99.90;;;;;;5050855;28;20092;-46
2024/01/19 08:49:26;;;;;;;146.63;56.72;;;13.90;99.90;;;;;;5044238;28;20149;-44
2024/01/19 08:51:53;;;;;;;142.77;57.13;;;14.00;99.90;;;;;;5047189;28;20436;-44
2024/01/19 08:54:19;;;;;;;167.73;59.65;;;13.90;99.90;;;;;;5041271;28;20164;-46
2024/01/19 08:56:46;;;;;;;156.90;58.88;;;13.80;99.90;;;;;;5048269;28;20102;-46
2024/01/19 08:59:13;;;;;;;166.10;56.33;;;13.80;99.90;;;;;;5041831;28;20106;-48
2024/01/19 09:01:39;;;;;;;146.10;57.72;;;13.90;99.90;;;;;;5047561;28;20156;-46
2024/01/19 09:04:06;;;;;;;160.23;59.28;;;13.80;99.90;;;;;;5046000;28;20526;-44
2024/01/19 09:06:32;;;;;;;148.75;57.97;;;13.80;99.90;;;;;;5043571;28;20069;-43
2024/01/19 09:09:03;;;;;;;129.63;56.92;;;13.70;99.90;;;;;;5047492;28;20105;-44
2024/01/19 09:11:34;;;;;;;155.80;60.85;;;13.60;99.90;;;;;;5034505;28;20078;-44
2024/01/19 09:14:02;;;;;;;154.35;57.40;;;13.60;99.90;;;;;;5040764;28;20086;-43
2024/01/19 09:16:28;;;;;;;147.68;59.40;;;13.60;99.90;;;;;;5055657;28;20276;-43
2024/01/19 09:18:55;;;;;;;147.63;60.40;;;13.60;99.90;;;;;;5035060;28;20089;-43
2024/01/19 09:21:23;;;;;;;131.52;57.67;;;13.60;99.90;;;;;;5042985;28;20080;-47
2024/01/19 09:23:50;;;;;;;148.60;58.15;;;13.60;99.90;;;;;;5041547;28;20092;-49
2024/01/19 09:26:21;;;;;;;148.68;59.20;;;13.50;99.90;;;;;;5040872;28;20076;-49
2024/01/19 09:28:48;;;;;;;142.27;59.50;;;13.50;99.90;;;;;;5036455;28;20086;-43
2024/01/19 09:31:15;;;;;;;146.52;59.92;;;13.50;99.90;;;;;;5037186;28;20108;-57
2024/01/19 09:33:42;;;;;;;153.63;63.22;;;13.50;99.90;;;;;;5042253;28;20123;-46
2024/01/19 09:36:09;;;;;;;142.15;61.17;;;13.50;99.90;;;;;;5042521;28;20216;-50
2024/01/19 09:38:37;;;;;;;146.77;58.75;;;13.50;99.90;;;;;;5032451;28;20078;-45
2024/01/19 09:41:15;;;;;;;150.35;61.15;;;13.50;99.90;;;;;;5039346;28;21099;-57
2024/01/19 09:43:45;;;;;;;152.23;58.60;;;13.40;99.90;;;;;;5039314;28;20088;-45
2024/01/19 09:46:21;;;;;;;140.55;60.30;;;13.40;99.90;;;;;;5040118;28;20066;-47
2024/01/19 09:49:18;;;;;;;167.45;59.85;;;13.40;99.90;;;;;;5039930;28;20117;-45
2024/01/19 09:52:00;;;;;;;131.80;60.40;;;13.30;99.90;;;;;;5040050;28;20730;-44
2024/01/19 09:54:33;;;;;;;154.18;62.22;;;13.40;99.90;;;;;;5039096;28;20086;-44
2024/01/19 09:57:04;;;;;;;140.70;58.60;;;13.40;99.90;;;;;;5038242;28;20179;-48
2024/01/19 09:59:32;;;;;;;149.52;61.95;;;13.30;99.90;;;;;;5046359;28;20078;-43
2024/01/19 10:01:59;;;;;;;147.48;59.65;;;13.30;99.90;;;;;;5046081;28;20376;-48
2024/01/19 10:04:27;;;;;;;133.27;56.38;;;13.30;99.90;;;;;;5047418;28;20089;-45
2024/01/19 10:06:54;;;;;;;140.25;60.47;;;13.30;99.90;;;;;;5033409;28;20070;-48
2024/01/19 10:09:23;;;;;;;131.40;58.67;;;13.30;99.90;;;;;;5041459;28;20157;-44
2024/01/19 10:11:54;;;;;;;146.82;62.80;;;13.30;99.90;;;;;;5038208;28;20122;-44
2024/01/19 10:14:23;;;;;;;136.93;58.40;;;13.10;99.90;;;;;;5045439;28;20517;-43
2024/01/19 10:16:50;;;;;;;143.90;60.67;;;13.20;99.90;;;;;;5044102;28;20105;-44
2024/01/19 10:19:20;;;;;;;134.43;56.63;;;13.10;99.90;;;;;;5037581;28;20107;-51
2024/01/19 10:21:47;;;;;;;136.82;57.78;;;13.10;99.90;;;;;;5028496;28;20123;-44
2024/01/19 10:24:15;;;;;;;134.40;58.47;;;13.10;99.90;;;;;;5042787;28;20146;-53
2024/01/19 10:26:42;;;;;;;144.18;67.85;;;13.10;99.90;;;;;;5051494;28;20069;-49
2024/01/19 10:29:13;;;;;;;150.95;68.68;;;13.10;99.90;;;;;;5033296;28;20080;-54
2024/01/19 10:31:42;;;;;;;168.95;75.45;;;13.00;99.90;;;;;;5038116;28;20085;-45
2024/01/19 10:34:23;;;;;;;143.23;56.53;;;13.00;99.90;;;;;;5033440;28;20108;-43
2024/01/19 10:36:51;;;;;;;133.05;60.53;;;12.90;99.90;;;;;;5034335;28;20147;-49
2024/01/19 10:39:31;;;;;;;130.80;62.03;;;13.00;99.90;;;;;;5040636;28;20084;-52
2024/01/19 10:42:06;;;;;;;119.85;60.80;;;13.00;99.90;;;;;;5038656;28;20146;-44
2024/01/19 10:44:33;;;;;;;152.23;60.92;;;13.00;99.90;;;;;;5040902;28;20128;-44
2024/01/19 10:47:00;;;;;;;140.80;62.55;;;13.00;99.90;;;;;;5046159;28;20420;-44
2024/01/19 10:49:27;;;;;;;131.43;61.90;;;13.00;99.90;;;;;;5035570;28;20113;-46
2024/01/19 10:51:55;;;;;;;140.10;61.92;;;13.00;99.90;;;;;;5036880;28;20517;-46
2024/01/19 10:54:27;;;;;;;147.13;64.78;;;13.00;99.90;;;;;;5043761;28;20070;-44
2024/01/19 10:57:11;;;;;;;142.77;62.45;;;13.00;99.90;;;;;;5040724;28;20108;-52
2024/01/19 10:59:38;;;;;;;125.95;64.15;;;12.90;99.90;;;;;;5036179;28;20073;-50
2024/01/19 11:02:05;;;;;;;160.63;67.75;;;12.90;99.90;;;;;;5037347;28;21550;-50
2024/01/19 11:04:33;;;;;;;128.15;61.22;;;12.90;99.90;;;;;;5043578;28;20535;-44
2024/01/19 11:07:00;;;;;;;141.82;65.25;;;12.90;99.90;;;;;;5038238;28;20088;-47
2024/01/19 11:09:26;;;;;;;131.27;61.75;;;12.80;99.90;;;;;;5046139;28;20439;-50
2024/01/19 11:12:00;;;;;;;122.90;60.13;;;12.80;99.90;;;;;;5043546;28;20086;-48
2024/01/19 16:06:07;;;;;;;68.80;28.23;;;13.90;99.90;;;;;;5032807;28;20121;-45
2024/01/19 16:08:34;;;;;;;72.38;29.00;;;14.10;99.90;;;;;;5053169;28;20081;-54
2024/01/19 16:11:00;;;;;;;66.40;26.95;;;14.40;99.90;;;;;;5054660;28;20100;-45
2024/01/19 16:13:28;;;;;;;61.50;25.95;;;14.80;99.90;;;;;;5034538;28;20558;-46
2024/01/19 16:15:55;;;;;;;67.82;32.75;;;15.40;99.90;;;;;;5040655;28;20120;-48
2024/01/19 16:18:22;;;;;;;68.25;27.00;;;16.30;99.70;;;;;;5039119;28;21585;-43
2024/01/19 16:20:48;;;;;;;69.72;25.80;;;17.30;98.20;;;;;;5039591;28;20073;-47
2024/01/19 16:23:15;;;;;;;70.68;24.67;;;18.10;95.90;;;;;;5038761;28;20069;-48
2024/01/19 16:25:42;;;;;;;33.53;16.58;;;18.80;93.80;;;;;;5064234;28;20077;-45
2024/01/19 16:28:14;;;;;;;39.85;17.13;;;18.80;91.30;;;;;;5055517;28;20077;-51
2024/01/19 16:30:42;;;;;;;34.97;15.90;;;19.00;91.00;;;;;;5045032;28;20104;-45
2024/01/19 16:33:10;;;;;;;44.22;16.35;;;19.00;91.00;;;;;;5061152;28;20119;-45
2024/01/19 16:35:37;;;;;;;40.28;15.93;;;18.80;90.90;;;;;;5042038;28;20070;-47
2024/01/19 16:38:04;;;;;;;37.17;15.88;;;18.20;90.90;;;;;;5041649;28;20583;-44
2024/01/19 16:40:30;;;;;;;44.00;15.38;;;17.70;91.70;;;;;;5056178;28;20077;-48
2024/01/19 16:42:57;;;;;;;34.60;13.93;;;17.60;92.10;;;;;;5040139;28;20160;-48
2024/01/19 16:45:23;;;;;;;38.38;15.68;;;17.70;92.10;;;;;;5042919;28;20088;-61
2024/01/19 16:47:54;;;;;;;33.42;12.40;;;17.90;92.30;;;;;;5036575;28;20123;-43
2024/01/19 16:50:20;;;;;;;35.95;14.23;;;17.80;91.00;;;;;;5062326;28;20085;-44
2024/01/19 16:52:47;;;;;;;42.47;14.85;;;17.90;91.30;;;;;;5056807;28;20078;-51
2024/01/19 16:55:15;;;;;;;36.00;13.65;;;18.10;91.40;;;;;;5040010;28;20074;-48
2024/01/19 16:57:41;;;;;;;37.35;14.50;;;18.40;91.00;;;;;;5038001;28;20152;-46
2024/01/19 17:00:08;;;;;;;35.50;14.95;;;18.70;90.00;;;;;;5042428;28;20073;-51
2024/01/19 17:02:35;;;;;;;49.85;15.80;;;18.90;89.70;;;;;;5039237;28;20081;-47
2024/01/19 17:05:03;;;;;;;53.08;15.93;;;19.30;89.20;;;;;;5040196;28;20078;-61
2024/01/19 17:07:29;;;;;;;35.38;14.07;;;19.40;87.40;;;;;;5051149;28;20632;-45
2024/01/19 17:09:56;;;;;;;35.20;14.10;;;19.00;87.10;;;;;;5035835;28;20529;-44
2024/01/19 17:12:22;;;;;;;34.45;12.50;;;18.80;87.10;;;;;;5038962;28;20074;-44
2024/01/19 17:14:49;;;;;;;36.83;13.00;;;18.50;86.60;;;;;;5037620;28;20080;-47
2024/01/19 17:17:15;;;;;;;33.00;13.02;;;18.30;88.30;;;;;;5059089;28;20143;-52
2024/01/19 17:19:42;;;;;;;34.28;12.40;;;18.40;88.20;;;;;;5038526;28;20077;-45